Pagrindinis puslapis
METAR-TAF:

METAR-TAF

Oro uostai :

Ronebis, Švedija

platuma: 56-16N, ilguma: 015-17E, Aukštis: 58 m

Dabartinis oras

Ataskaita buvo paskelbta 1 valandą ir 13 minutes, ne 04:20 UTC
Vėjas 9 kt iš Vakarų, svyruoja nuo Vakarų/Pietvakarių ir Vakarų/Šiaurės Vakarų
Temperatūra 4°C
Drėgmė 93%
Slėgis 992 hPa
Matomumas 10 km arba daugiau

METAR: ESDF 300420Z AUTO 27009KT 240V300 9999 OVC027/// 04/03 Q0992

Laikas: 06:33 (05:33 UTC)

Prognozė

Ataskaita buvo paskelbta 10 valandos ir 12 minutes, ne 19:21 UTC
Prognozė galioja nuo 29 metu 19 UTC su 29 metu 22 UTC
Vėjas 14 kt iš Vakarų su gūsio iki 24 kt
Matomumas 10 km arba daugiau
Su prošvaistėmis ne aukštis 1700 ft
Laikinai
nuo 29 metu 19 UTC su 29 metu 22 UTC
Su prošvaistėmis ne aukštis 800 ft

TAF: ESDF 291921Z 2919/2922 26014G24KT 9999 BKN017 TEMPO 2919/2922 BKN008

Orai ataskaitas ir orų prognozės (METAR, TAF).

turimą stotys yra geltonos ir raudonos taškus žemėlapyje.

Perkelti pele per norėdami pamatyti stoties vardą.

Tada spustelėkite, norėdami matyti oro stebėjimo ir prognozės.

Norėdami pakeisti žemėlapį: spustelėkite ant žalios mygtukų su juodo kryžiaus žemyn,; žalią mygtuką su brūkšneliu, jei norite nutolinti; arba žalių rodyklių gretimoms žemėlapius.


METAR-TAF: